sensor_id;sensor_type;location;lat;lon;timestamp;P1;durP1;ratioP1;P2;durP2;ratioP2
41233;SDS011;26968;42.686;23.352;2022-10-26T00:00:47;21.10;;;6.72;;
41233;SDS011;26968;42.686;23.352;2022-10-26T00:03:14;22.10;;;7.88;;
41233;SDS011;26968;42.686;23.352;2022-10-26T00:05:39;25.02;;;7.07;;
41233;SDS011;26968;42.686;23.352;2022-10-26T00:08:06;22.10;;;7.00;;
41233;SDS011;26968;42.686;23.352;2022-10-26T00:10:38;19.55;;;7.07;;
41233;SDS011;26968;42.686;23.352;2022-10-26T00:13:04;22.05;;;7.15;;
41233;SDS011;26968;42.686;23.352;2022-10-26T00:15:33;23.13;;;7.72;;
41233;SDS011;26968;42.686;23.352;2022-10-26T00:17:58;29.33;;;7.28;;
41233;SDS011;26968;42.686;23.352;2022-10-26T00:20:23;17.35;;;7.10;;
41233;SDS011;26968;42.686;23.352;2022-10-26T00:22:49;21.48;;;8.43;;
41233;SDS011;26968;42.686;23.352;2022-10-26T00:25:16;22.80;;;8.23;;
41233;SDS011;26968;42.686;23.352;2022-10-26T00:27:41;19.00;;;7.20;;
41233;SDS011;26968;42.686;23.352;2022-10-26T00:30:08;18.50;;;7.50;;
41233;SDS011;26968;42.686;23.352;2022-10-26T00:32:33;25.75;;;6.63;;
41233;SDS011;26968;42.686;23.352;2022-10-26T00:34:59;17.30;;;7.13;;
41233;SDS011;26968;42.686;23.352;2022-10-26T00:37:25;22.83;;;6.93;;
41233;SDS011;26968;42.686;23.352;2022-10-26T00:39:50;20.50;;;7.10;;
41233;SDS011;26968;42.686;23.352;2022-10-26T00:42:20;19.73;;;6.35;;
41233;SDS011;26968;42.686;23.352;2022-10-26T00:47:16;21.00;;;6.97;;
41233;SDS011;26968;42.686;23.352;2022-10-26T00:49:48;17.30;;;6.60;;
41233;SDS011;26968;42.686;23.352;2022-10-26T00:52:16;26.80;;;6.85;;
41233;SDS011;26968;42.686;23.352;2022-10-26T00:54:44;21.65;;;6.75;;
41233;SDS011;26968;42.686;23.352;2022-10-26T00:57:12;17.83;;;6.88;;
41233;SDS011;26968;42.686;23.352;2022-10-26T00:59:40;18.30;;;6.75;;
41233;SDS011;26968;42.686;23.352;2022-10-26T01:02:06;17.73;;;7.32;;
41233;SDS011;26968;42.686;23.352;2022-10-26T01:04:32;27.73;;;7.85;;
41233;SDS011;26968;42.686;23.352;2022-10-26T01:07:00;22.27;;;6.93;;
41233;SDS011;26968;42.686;23.352;2022-10-26T01:09:28;24.42;;;7.38;;
41233;SDS011;26968;42.686;23.352;2022-10-26T01:11:53;18.73;;;7.03;;
41233;SDS011;26968;42.686;23.352;2022-10-26T01:14:19;17.25;;;6.80;;
41233;SDS011;26968;42.686;23.352;2022-10-26T01:31:00;20.55;;;6.95;;
41233;SDS011;26968;42.686;23.352;2022-10-26T01:33:30;17.70;;;7.05;;
41233;SDS011;26968;42.686;23.352;2022-10-26T01:41:44;23.90;;;7.45;;
41233;SDS011;26968;42.686;23.352;2022-10-26T01:44:35;20.55;;;7.22;;
41233;SDS011;26968;42.686;23.352;2022-10-26T01:47:20;19.65;;;7.47;;
41233;SDS011;26968;42.686;23.352;2022-10-26T01:49:49;16.27;;;7.13;;
41233;SDS011;26968;42.686;23.352;2022-10-26T01:52:19;26.88;;;8.25;;
41233;SDS011;26968;42.686;23.352;2022-10-26T01:54:45;23.25;;;7.53;;
41233;SDS011;26968;42.686;23.352;2022-10-26T01:57:11;31.50;;;8.30;;
41233;SDS011;26968;42.686;23.352;2022-10-26T02:05:23;20.13;;;8.10;;
41233;SDS011;26968;42.686;23.352;2022-10-26T02:08:12;23.25;;;8.75;;
41233;SDS011;26968;42.686;23.352;2022-10-26T02:16:22;32.72;;;8.90;;
41233;SDS011;26968;42.686;23.352;2022-10-26T02:21:25;28.42;;;7.93;;
41233;SDS011;26968;42.686;23.352;2022-10-26T02:23:55;25.60;;;8.18;;
41233;SDS011;26968;42.686;23.352;2022-10-26T02:26:23;28.35;;;8.20;;
41233;SDS011;26968;42.686;23.352;2022-10-26T02:28:53;19.67;;;8.05;;
41233;SDS011;26968;42.686;23.352;2022-10-26T02:31:22;22.15;;;7.82;;
41233;SDS011;26968;42.686;23.352;2022-10-26T02:33:50;18.17;;;7.20;;
41233;SDS011;26968;42.686;23.352;2022-10-26T02:36:23;21.33;;;7.93;;
41233;SDS011;26968;42.686;23.352;2022-10-26T02:38:52;30.15;;;7.68;;
41233;SDS011;26968;42.686;23.352;2022-10-26T02:41:19;24.98;;;8.75;;
41233;SDS011;26968;42.686;23.352;2022-10-26T02:43:51;21.75;;;8.75;;
41233;SDS011;26968;42.686;23.352;2022-10-26T02:46:21;27.63;;;8.30;;
41233;SDS011;26968;42.686;23.352;2022-10-26T02:48:50;23.30;;;8.63;;
41233;SDS011;26968;42.686;23.352;2022-10-26T02:53:53;16.63;;;7.72;;
41233;SDS011;26968;42.686;23.352;2022-10-26T02:56:25;19.67;;;9.35;;
41233;SDS011;26968;42.686;23.352;2022-10-26T02:58:56;25.65;;;9.73;;
41233;SDS011;26968;42.686;23.352;2022-10-26T03:03:55;23.05;;;9.52;;
41233;SDS011;26968;42.686;23.352;2022-10-26T03:06:22;23.58;;;9.82;;
41233;SDS011;26968;42.686;23.352;2022-10-26T03:08:48;36.53;;;10.50;;
41233;SDS011;26968;42.686;23.352;2022-10-26T03:11:14;27.08;;;11.88;;
41233;SDS011;26968;42.686;23.352;2022-10-26T03:13:40;29.33;;;10.50;;
41233;SDS011;26968;42.686;23.352;2022-10-26T03:16:05;26.58;;;10.90;;
41233;SDS011;26968;42.686;23.352;2022-10-26T03:18:31;28.33;;;10.98;;
41233;SDS011;26968;42.686;23.352;2022-10-26T03:20:56;24.30;;;10.40;;
41233;SDS011;26968;42.686;23.352;2022-10-26T03:23:22;24.75;;;10.70;;
41233;SDS011;26968;42.686;23.352;2022-10-26T03:25:47;25.85;;;10.02;;
41233;SDS011;26968;42.686;23.352;2022-10-26T03:28:12;32.38;;;11.02;;
41233;SDS011;26968;42.686;23.352;2022-10-26T03:30:38;28.20;;;10.82;;
41233;SDS011;26968;42.686;23.352;2022-10-26T03:33:04;23.13;;;9.70;;
41233;SDS011;26968;42.686;23.352;2022-10-26T03:35:29;21.00;;;8.95;;
41233;SDS011;26968;42.686;23.352;2022-10-26T03:37:55;28.80;;;10.07;;
41233;SDS011;26968;42.686;23.352;2022-10-26T03:40:20;29.50;;;9.73;;
41233;SDS011;26968;42.686;23.352;2022-10-26T03:42:46;16.65;;;9.02;;
41233;SDS011;26968;42.686;23.352;2022-10-26T03:45:11;21.00;;;8.82;;
41233;SDS011;26968;42.686;23.352;2022-10-26T03:47:46;25.60;;;9.82;;
41233;SDS011;26968;42.686;23.352;2022-10-26T03:50:15;20.58;;;9.32;;
41233;SDS011;26968;42.686;23.352;2022-10-26T03:52:42;22.73;;;9.25;;
41233;SDS011;26968;42.686;23.352;2022-10-26T03:55:08;21.38;;;9.07;;
41233;SDS011;26968;42.686;23.352;2022-10-26T03:57:38;24.42;;;9.88;;
41233;SDS011;26968;42.686;23.352;2022-10-26T04:00:05;23.52;;;8.52;;
41233;SDS011;26968;42.686;23.352;2022-10-26T04:02:31;23.20;;;10.75;;
41233;SDS011;26968;42.686;23.352;2022-10-26T04:04:57;23.92;;;10.02;;
41233;SDS011;26968;42.686;23.352;2022-10-26T04:07:22;29.13;;;10.05;;
41233;SDS011;26968;42.686;23.352;2022-10-26T04:09:47;25.65;;;8.77;;
41233;SDS011;26968;42.686;23.352;2022-10-26T04:12:13;16.63;;;8.48;;
41233;SDS011;26968;42.686;23.352;2022-10-26T04:14:40;22.77;;;9.75;;
41233;SDS011;26968;42.686;23.352;2022-10-26T04:17:06;21.85;;;8.52;;
41233;SDS011;26968;42.686;23.352;2022-10-26T04:19:33;24.20;;;9.55;;
41233;SDS011;26968;42.686;23.352;2022-10-26T04:21:58;22.33;;;9.13;;
41233;SDS011;26968;42.686;23.352;2022-10-26T04:24:23;17.90;;;8.32;;
41233;SDS011;26968;42.686;23.352;2022-10-26T04:26:49;23.83;;;9.27;;
41233;SDS011;26968;42.686;23.352;2022-10-26T04:29:14;25.02;;;10.65;;
41233;SDS011;26968;42.686;23.352;2022-10-26T04:31:40;20.55;;;9.57;;
41233;SDS011;26968;42.686;23.352;2022-10-26T04:34:06;26.23;;;10.25;;
41233;SDS011;26968;42.686;23.352;2022-10-26T04:36:31;24.63;;;11.43;;
41233;SDS011;26968;42.686;23.352;2022-10-26T04:38:58;20.55;;;10.50;;
41233;SDS011;26968;42.686;23.352;2022-10-26T04:41:23;19.85;;;10.77;;
41233;SDS011;26968;42.686;23.352;2022-10-26T04:43:49;24.33;;;10.13;;
41233;SDS011;26968;42.686;23.352;2022-10-26T04:46:14;30.42;;;10.88;;
41233;SDS011;26968;42.686;23.352;2022-10-26T04:48:40;30.67;;;11.70;;
41233;SDS011;26968;42.686;23.352;2022-10-26T04:51:05;30.15;;;10.85;;
41233;SDS011;26968;42.686;23.352;2022-10-26T04:53:30;38.72;;;11.20;;
41233;SDS011;26968;42.686;23.352;2022-10-26T04:55:58;27.75;;;10.55;;
41233;SDS011;26968;42.686;23.352;2022-10-26T04:58:25;25.63;;;10.20;;
41233;SDS011;26968;42.686;23.352;2022-10-26T05:00:51;34.90;;;10.90;;
41233;SDS011;26968;42.686;23.352;2022-10-26T05:03:17;34.90;;;12.02;;
41233;SDS011;26968;42.686;23.352;2022-10-26T05:05:42;47.78;;;13.35;;
41233;SDS011;26968;42.686;23.352;2022-10-26T05:08:07;21.77;;;10.90;;
41233;SDS011;26968;42.686;23.352;2022-10-26T05:10:33;34.95;;;12.98;;
41233;SDS011;26968;42.686;23.352;2022-10-26T05:12:59;37.50;;;13.43;;
41233;SDS011;26968;42.686;23.352;2022-10-26T05:15:25;33.53;;;12.93;;
41233;SDS011;26968;42.686;23.352;2022-10-26T05:17:54;34.38;;;12.18;;
41233;SDS011;26968;42.686;23.352;2022-10-26T05:20:21;35.58;;;12.50;;
41233;SDS011;26968;42.686;23.352;2022-10-26T05:22:53;45.85;;;14.15;;
41233;SDS011;26968;42.686;23.352;2022-10-26T05:25:18;41.78;;;15.05;;
41233;SDS011;26968;42.686;23.352;2022-10-26T05:27:43;44.25;;;15.38;;
41233;SDS011;26968;42.686;23.352;2022-10-26T05:30:09;38.35;;;14.52;;
41233;SDS011;26968;42.686;23.352;2022-10-26T05:32:35;40.42;;;16.27;;
41233;SDS011;26968;42.686;23.352;2022-10-26T05:35:00;43.70;;;14.45;;
41233;SDS011;26968;42.686;23.352;2022-10-26T05:37:29;44.10;;;15.10;;
41233;SDS011;26968;42.686;23.352;2022-10-26T05:39:54;46.40;;;15.35;;
41233;SDS011;26968;42.686;23.352;2022-10-26T05:42:20;38.17;;;14.25;;
41233;SDS011;26968;42.686;23.352;2022-10-26T05:44:45;40.05;;;13.20;;
41233;SDS011;26968;42.686;23.352;2022-10-26T05:47:11;38.47;;;14.00;;
41233;SDS011;26968;42.686;23.352;2022-10-26T05:49:37;39.83;;;14.98;;
41233;SDS011;26968;42.686;23.352;2022-10-26T05:52:02;36.08;;;15.23;;
41233;SDS011;26968;42.686;23.352;2022-10-26T05:54:28;46.38;;;16.20;;
41233;SDS011;26968;42.686;23.352;2022-10-26T05:56:54;48.38;;;16.00;;
41233;SDS011;26968;42.686;23.352;2022-10-26T05:59:19;49.47;;;16.65;;
41233;SDS011;26968;42.686;23.352;2022-10-26T06:06:50;44.03;;;17.05;;
41233;SDS011;26968;42.686;23.352;2022-10-26T06:09:18;51.53;;;16.50;;
41233;SDS011;26968;42.686;23.352;2022-10-26T06:11:44;43.95;;;16.88;;
41233;SDS011;26968;42.686;23.352;2022-10-26T06:14:10;37.90;;;15.68;;
41233;SDS011;26968;42.686;23.352;2022-10-26T06:16:43;54.63;;;16.83;;
41233;SDS011;26968;42.686;23.352;2022-10-26T06:19:40;36.10;;;13.68;;
41233;SDS011;26968;42.686;23.352;2022-10-26T06:30:58;36.13;;;14.68;;
41233;SDS011;26968;42.686;23.352;2022-10-26T06:33:24;35.33;;;14.43;;
41233;SDS011;26968;42.686;23.352;2022-10-26T06:41:25;36.45;;;13.77;;
41233;SDS011;26968;42.686;23.352;2022-10-26T06:43:51;28.30;;;11.15;;
41233;SDS011;26968;42.686;23.352;2022-10-26T06:51:42;21.85;;;9.43;;
41233;SDS011;26968;42.686;23.352;2022-10-26T06:54:39;30.10;;;12.65;;
41233;SDS011;26968;42.686;23.352;2022-10-26T06:57:14;25.35;;;10.75;;
41233;SDS011;26968;42.686;23.352;2022-10-26T07:00:41;23.05;;;9.68;;
41233;SDS011;26968;42.686;23.352;2022-10-26T07:02:42;20.08;;;9.50;;
41233;SDS011;26968;42.686;23.352;2022-10-26T07:05:08;29.48;;;10.15;;
41233;SDS011;26968;42.686;23.352;2022-10-26T07:07:38;30.08;;;11.65;;
41233;SDS011;26968;42.686;23.352;2022-10-26T07:10:06;28.05;;;11.20;;
41233;SDS011;26968;42.686;23.352;2022-10-26T07:12:32;23.48;;;10.57;;
41233;SDS011;26968;42.686;23.352;2022-10-26T07:14:57;19.40;;;9.20;;
41233;SDS011;26968;42.686;23.352;2022-10-26T07:17:24;25.10;;;10.07;;
41233;SDS011;26968;42.686;23.352;2022-10-26T07:19:52;33.70;;;10.02;;
41233;SDS011;26968;42.686;23.352;2022-10-26T07:22:18;26.60;;;10.68;;
41233;SDS011;26968;42.686;23.352;2022-10-26T07:24:43;21.45;;;10.50;;
41233;SDS011;26968;42.686;23.352;2022-10-26T07:27:09;25.88;;;9.43;;
41233;SDS011;26968;42.686;23.352;2022-10-26T07:29:35;30.08;;;9.85;;
41233;SDS011;26968;42.686;23.352;2022-10-26T07:32:00;28.80;;;10.13;;
41233;SDS011;26968;42.686;23.352;2022-10-26T07:34:26;22.17;;;9.20;;
41233;SDS011;26968;42.686;23.352;2022-10-26T07:36:52;20.90;;;10.05;;
41233;SDS011;26968;42.686;23.352;2022-10-26T07:39:17;19.88;;;9.15;;
41233;SDS011;26968;42.686;23.352;2022-10-26T07:41:43;19.95;;;9.68;;
41233;SDS011;26968;42.686;23.352;2022-10-26T07:44:10;22.17;;;8.65;;
41233;SDS011;26968;42.686;23.352;2022-10-26T07:46:35;19.90;;;9.63;;
41233;SDS011;26968;42.686;23.352;2022-10-26T07:49:00;20.00;;;9.80;;
41233;SDS011;26968;42.686;23.352;2022-10-26T07:51:26;19.33;;;10.50;;
41233;SDS011;26968;42.686;23.352;2022-10-26T07:53:51;20.92;;;9.50;;
41233;SDS011;26968;42.686;23.352;2022-10-26T07:56:17;15.55;;;9.20;;
41233;SDS011;26968;42.686;23.352;2022-10-26T07:58:42;24.17;;;9.45;;
41233;SDS011;26968;42.686;23.352;2022-10-26T08:01:09;16.02;;;9.10;;
41233;SDS011;26968;42.686;23.352;2022-10-26T08:03:38;18.15;;;9.43;;
41233;SDS011;26968;42.686;23.352;2022-10-26T08:06:04;31.77;;;10.45;;
41233;SDS011;26968;42.686;23.352;2022-10-26T08:08:31;25.67;;;10.23;;
41233;SDS011;26968;42.686;23.352;2022-10-26T08:10:57;23.40;;;9.10;;
41233;SDS011;26968;42.686;23.352;2022-10-26T08:13:23;28.45;;;9.27;;
41233;SDS011;26968;42.686;23.352;2022-10-26T08:15:49;24.27;;;10.40;;
41233;SDS011;26968;42.686;23.352;2022-10-26T08:18:14;29.88;;;9.10;;
41233;SDS011;26968;42.686;23.352;2022-10-26T08:20:40;26.73;;;9.30;;
41233;SDS011;26968;42.686;23.352;2022-10-26T08:23:05;19.15;;;8.95;;
41233;SDS011;26968;42.686;23.352;2022-10-26T08:25:32;19.17;;;8.13;;
41233;SDS011;26968;42.686;23.352;2022-10-26T08:28:02;19.52;;;7.78;;
41233;SDS011;26968;42.686;23.352;2022-10-26T08:30:29;26.40;;;9.23;;
41233;SDS011;26968;42.686;23.352;2022-10-26T08:32:59;14.77;;;7.88;;
41233;SDS011;26968;42.686;23.352;2022-10-26T08:35:25;21.65;;;7.85;;
41233;SDS011;26968;42.686;23.352;2022-10-26T08:37:51;13.45;;;7.55;;
41233;SDS011;26968;42.686;23.352;2022-10-26T08:40:17;20.92;;;7.60;;
41233;SDS011;26968;42.686;23.352;2022-10-26T08:42:46;12.20;;;5.78;;
41233;SDS011;26968;42.686;23.352;2022-10-26T08:45:23;17.90;;;6.50;;
41233;SDS011;26968;42.686;23.352;2022-10-26T08:47:53;14.50;;;6.43;;
41233;SDS011;26968;42.686;23.352;2022-10-26T08:50:32;14.60;;;6.25;;
41233;SDS011;26968;42.686;23.352;2022-10-26T08:56:16;13.57;;;5.55;;
41233;SDS011;26968;42.686;23.352;2022-10-26T09:01:23;13.65;;;5.35;;
41233;SDS011;26968;42.686;23.352;2022-10-26T09:03:49;18.30;;;5.80;;
41233;SDS011;26968;42.686;23.352;2022-10-26T09:12:16;19.23;;;5.60;;
41233;SDS011;26968;42.686;23.352;2022-10-26T09:17:41;10.98;;;4.88;;
41233;SDS011;26968;42.686;23.352;2022-10-26T09:25:38;9.18;;;4.68;;
41233;SDS011;26968;42.686;23.352;2022-10-26T09:28:07;15.23;;;4.95;;
41233;SDS011;26968;42.686;23.352;2022-10-26T09:30:38;17.35;;;4.93;;
41233;SDS011;26968;42.686;23.352;2022-10-26T09:33:07;14.95;;;4.88;;
41233;SDS011;26968;42.686;23.352;2022-10-26T09:35:55;7.20;;;3.90;;
41233;SDS011;26968;42.686;23.352;2022-10-26T09:41:19;13.32;;;4.03;;
41233;SDS011;26968;42.686;23.352;2022-10-26T09:43:52;8.57;;;3.60;;
41233;SDS011;26968;42.686;23.352;2022-10-26T09:46:26;7.43;;;3.00;;
41233;SDS011;26968;42.686;23.352;2022-10-26T09:49:05;6.75;;;3.13;;
41233;SDS011;26968;42.686;23.352;2022-10-26T09:51:36;7.43;;;3.38;;
41233;SDS011;26968;42.686;23.352;2022-10-26T09:54:16;7.03;;;3.83;;
41233;SDS011;26968;42.686;23.352;2022-10-26T09:56:45;9.05;;;3.03;;
41233;SDS011;26968;42.686;23.352;2022-10-26T09:59:16;11.82;;;3.40;;
41233;SDS011;26968;42.686;23.352;2022-10-26T10:01:44;8.45;;;2.92;;
41233;SDS011;26968;42.686;23.352;2022-10-26T10:04:15;8.88;;;3.10;;
41233;SDS011;26968;42.686;23.352;2022-10-26T10:09:28;8.95;;;3.65;;
41233;SDS011;26968;42.686;23.352;2022-10-26T10:11:54;10.25;;;3.08;;
41233;SDS011;26968;42.686;23.352;2022-10-26T10:17:02;11.88;;;3.10;;
41233;SDS011;26968;42.686;23.352;2022-10-26T10:19:42;10.63;;;2.63;;
41233;SDS011;26968;42.686;23.352;2022-10-26T10:22:10;9.07;;;2.90;;
41233;SDS011;26968;42.686;23.352;2022-10-26T10:25:20;10.23;;;2.60;;
41233;SDS011;26968;42.686;23.352;2022-10-26T10:27:54;9.88;;;2.78;;
41233;SDS011;26968;42.686;23.352;2022-10-26T10:30:20;6.60;;;2.53;;
41233;SDS011;26968;42.686;23.352;2022-10-26T10:33:06;6.93;;;2.65;;
41233;SDS011;26968;42.686;23.352;2022-10-26T10:35:35;12.57;;;6.13;;
41233;SDS011;26968;42.686;23.352;2022-10-26T10:38:02;8.13;;;2.40;;
41233;SDS011;26968;42.686;23.352;2022-10-26T10:40:28;6.85;;;2.38;;
41233;SDS011;26968;42.686;23.352;2022-10-26T10:43:05;13.27;;;2.67;;
41233;SDS011;26968;42.686;23.352;2022-10-26T10:45:38;5.70;;;2.58;;
41233;SDS011;26968;42.686;23.352;2022-10-26T10:50:36;5.45;;;2.50;;
41233;SDS011;26968;42.686;23.352;2022-10-26T10:53:19;9.63;;;2.60;;
41233;SDS011;26968;42.686;23.352;2022-10-26T11:01:21;9.07;;;2.50;;
41233;SDS011;26968;42.686;23.352;2022-10-26T11:06:37;7.50;;;2.70;;
41233;SDS011;26968;42.686;23.352;2022-10-26T11:09:07;6.30;;;1.95;;
41233;SDS011;26968;42.686;23.352;2022-10-26T11:11:42;7.18;;;2.45;;
41233;SDS011;26968;42.686;23.352;2022-10-26T11:16:39;9.25;;;3.28;;
41233;SDS011;26968;42.686;23.352;2022-10-26T11:21:58;10.25;;;2.90;;
41233;SDS011;26968;42.686;23.352;2022-10-26T11:24:30;6.40;;;2.10;;
41233;SDS011;26968;42.686;23.352;2022-10-26T11:27:24;13.18;;;2.75;;
41233;SDS011;26968;42.686;23.352;2022-10-26T11:30:00;8.70;;;2.65;;
41233;SDS011;26968;42.686;23.352;2022-10-26T11:43:20;7.82;;;2.40;;
41233;SDS011;26968;42.686;23.352;2022-10-26T11:45:44;3.42;;;2.08;;
41233;SDS011;26968;42.686;23.352;2022-10-26T11:48:14;13.18;;;2.10;;
41233;SDS011;26968;42.686;23.352;2022-10-26T11:50:49;5.53;;;2.05;;
41233;SDS011;26968;42.686;23.352;2022-10-26T11:56:31;4.63;;;1.60;;
41233;SDS011;26968;42.686;23.352;2022-10-26T11:59:02;11.48;;;1.88;;
41233;SDS011;26968;42.686;23.352;2022-10-26T12:01:30;9.88;;;1.95;;
41233;SDS011;26968;42.686;23.352;2022-10-26T12:03:59;4.55;;;1.67;;
41233;SDS011;26968;42.686;23.352;2022-10-26T12:06:30;4.88;;;1.38;;
41233;SDS011;26968;42.686;23.352;2022-10-26T12:09:02;4.57;;;1.27;;
41233;SDS011;26968;42.686;23.352;2022-10-26T12:16:58;2.83;;;1.65;;
41233;SDS011;26968;42.686;23.352;2022-10-26T12:22:13;4.70;;;1.33;;
41233;SDS011;26968;42.686;23.352;2022-10-26T12:24:45;1.58;;;1.08;;
41233;SDS011;26968;42.686;23.352;2022-10-26T12:28:13;7.82;;;1.40;;
41233;SDS011;26968;42.686;23.352;2022-10-26T12:38:01;6.10;;;0.98;;
41233;SDS011;26968;42.686;23.352;2022-10-26T12:40:46;3.47;;;1.80;;
41233;SDS011;26968;42.686;23.352;2022-10-26T12:45:42;10.52;;;1.20;;
41233;SDS011;26968;42.686;23.352;2022-10-26T12:48:22;3.13;;;1.10;;
41233;SDS011;26968;42.686;23.352;2022-10-26T13:07:45;4.43;;;1.58;;
41233;SDS011;26968;42.686;23.352;2022-10-26T13:17:52;5.95;;;2.60;;
41233;SDS011;26968;42.686;23.352;2022-10-26T13:20:28;5.30;;;3.33;;
41233;SDS011;26968;42.686;23.352;2022-10-26T13:22:56;9.48;;;3.63;;
41233;SDS011;26968;42.686;23.352;2022-10-26T13:27:59;11.77;;;2.90;;
41233;SDS011;26968;42.686;23.352;2022-10-26T13:32:58;10.00;;;3.10;;
41233;SDS011;26968;42.686;23.352;2022-10-26T13:35:26;6.25;;;2.70;;
41233;SDS011;26968;42.686;23.352;2022-10-26T13:37:55;7.32;;;2.40;;
41233;SDS011;26968;42.686;23.352;2022-10-26T13:40:25;7.57;;;2.15;;
41233;SDS011;26968;42.686;23.352;2022-10-26T13:43:02;10.37;;;2.80;;
41233;SDS011;26968;42.686;23.352;2022-10-26T13:45:36;6.10;;;1.42;;
41233;SDS011;26968;42.686;23.352;2022-10-26T13:48:05;4.07;;;2.20;;
41233;SDS011;26968;42.686;23.352;2022-10-26T13:50:56;11.60;;;2.05;;
41233;SDS011;26968;42.686;23.352;2022-10-26T13:59:01;3.60;;;1.38;;
41233;SDS011;26968;42.686;23.352;2022-10-26T14:01:37;6.55;;;1.77;;
41233;SDS011;26968;42.686;23.352;2022-10-26T14:04:16;7.50;;;1.40;;
41233;SDS011;26968;42.686;23.352;2022-10-26T14:06:50;6.05;;;1.75;;
41233;SDS011;26968;42.686;23.352;2022-10-26T14:09:17;7.40;;;1.50;;
41233;SDS011;26968;42.686;23.352;2022-10-26T14:11:47;6.00;;;1.45;;
41233;SDS011;26968;42.686;23.352;2022-10-26T14:16:49;9.68;;;1.63;;
41233;SDS011;26968;42.686;23.352;2022-10-26T14:19:58;8.23;;;1.70;;
41233;SDS011;26968;42.686;23.352;2022-10-26T14:22:05;4.80;;;1.23;;
41233;SDS011;26968;42.686;23.352;2022-10-26T14:24:33;2.78;;;1.55;;
41233;SDS011;26968;42.686;23.352;2022-10-26T14:27:01;6.03;;;1.77;;
41233;SDS011;26968;42.686;23.352;2022-10-26T14:29:31;6.00;;;2.30;;
41233;SDS011;26968;42.686;23.352;2022-10-26T14:31:58;2.47;;;1.27;;
41233;SDS011;26968;42.686;23.352;2022-10-26T14:34:23;8.68;;;1.90;;
41233;SDS011;26968;42.686;23.352;2022-10-26T14:36:50;5.25;;;1.70;;
41233;SDS011;26968;42.686;23.352;2022-10-26T14:44:52;8.38;;;2.05;;
41233;SDS011;26968;42.686;23.352;2022-10-26T14:47:24;5.63;;;2.38;;
41233;SDS011;26968;42.686;23.352;2022-10-26T14:49:52;9.40;;;1.65;;
41233;SDS011;26968;42.686;23.352;2022-10-26T14:52:20;3.05;;;1.67;;
41233;SDS011;26968;42.686;23.352;2022-10-26T14:55:01;7.93;;;1.73;;
41233;SDS011;26968;42.686;23.352;2022-10-26T14:57:31;8.20;;;2.20;;
41233;SDS011;26968;42.686;23.352;2022-10-26T14:59:59;7.05;;;1.90;;
41233;SDS011;26968;42.686;23.352;2022-10-26T15:02:34;12.77;;;2.30;;
41233;SDS011;26968;42.686;23.352;2022-10-26T15:05:01;5.15;;;1.67;;
41233;SDS011;26968;42.686;23.352;2022-10-26T15:07:40;9.60;;;1.95;;
41233;SDS011;26968;42.686;23.352;2022-10-26T15:13:17;8.82;;;2.60;;
41233;SDS011;26968;42.686;23.352;2022-10-26T15:16:07;11.57;;;2.67;;
41233;SDS011;26968;42.686;23.352;2022-10-26T15:18:35;7.40;;;2.28;;
41233;SDS011;26968;42.686;23.352;2022-10-26T15:21:02;9.70;;;2.85;;
41233;SDS011;26968;42.686;23.352;2022-10-26T15:23:41;10.68;;;2.63;;
41233;SDS011;26968;42.686;23.352;2022-10-26T15:26:08;11.05;;;2.50;;
41233;SDS011;26968;42.686;23.352;2022-10-26T15:31:03;16.55;;;3.60;;
41233;SDS011;26968;42.686;23.352;2022-10-26T15:33:32;9.32;;;2.40;;
41233;SDS011;26968;42.686;23.352;2022-10-26T15:36:12;8.52;;;2.47;;
41233;SDS011;26968;42.686;23.352;2022-10-26T15:38:44;7.80;;;3.10;;
41233;SDS011;26968;42.686;23.352;2022-10-26T15:41:13;12.15;;;3.35;;
41233;SDS011;26968;42.686;23.352;2022-10-26T15:43:46;12.40;;;3.58;;
41233;SDS011;26968;42.686;23.352;2022-10-26T15:46:13;15.00;;;3.67;;
41233;SDS011;26968;42.686;23.352;2022-10-26T15:48:39;12.20;;;3.60;;
41233;SDS011;26968;42.686;23.352;2022-10-26T15:51:05;9.23;;;3.70;;
41233;SDS011;26968;42.686;23.352;2022-10-26T15:53:35;9.82;;;3.35;;
41233;SDS011;26968;42.686;23.352;2022-10-26T15:56:00;23.17;;;4.38;;
41233;SDS011;26968;42.686;23.352;2022-10-26T15:58:28;16.33;;;4.35;;
41233;SDS011;26968;42.686;23.352;2022-10-26T16:00:55;11.63;;;3.83;;
41233;SDS011;26968;42.686;23.352;2022-10-26T16:03:22;9.25;;;3.47;;
41233;SDS011;26968;42.686;23.352;2022-10-26T16:05:50;15.88;;;4.13;;
41233;SDS011;26968;42.686;23.352;2022-10-26T16:08:20;16.33;;;4.30;;
41233;SDS011;26968;42.686;23.352;2022-10-26T16:10:46;13.75;;;4.82;;
41233;SDS011;26968;42.686;23.352;2022-10-26T16:13:12;19.73;;;3.80;;
41233;SDS011;26968;42.686;23.352;2022-10-26T16:15:39;16.75;;;4.32;;
41233;SDS011;26968;42.686;23.352;2022-10-26T16:18:07;14.50;;;4.43;;
41233;SDS011;26968;42.686;23.352;2022-10-26T16:20:37;14.52;;;4.80;;
41233;SDS011;26968;42.686;23.352;2022-10-26T16:24:06;12.65;;;4.82;;
41233;SDS011;26968;42.686;23.352;2022-10-26T16:27:04;8.70;;;3.95;;
41233;SDS011;26968;42.686;23.352;2022-10-26T16:29:50;11.02;;;4.50;;
